Time;durP1;ratioP1;P1;durP2;ratioP2;P2;SDS_P1;SDS_P2;PMS_P1;PMS_P2;Temp;Humidity;BMP_temperature;BMP_pressure;BME280_temperature;BME280_humidity;BME280_pressure;Samples;Min_cycle;Max_cycle;Signal;HPM_P1;HPM_P2
2024/02/23 00:01:40;;;;;;;4.20;3.20;;;;;;;6.05;100.00;95730.41;6312349;28;20582;-56
2024/02/23 00:04:42;;;;;;;4.73;2.60;;;;;;;6.00;100.00;95733.03;6318817;28;20697;-57
2024/02/23 00:07:44;;;;;;;7.07;3.00;;;;;;;5.96;100.00;95735.44;6309047;28;20247;-57
2024/02/23 00:10:46;;;;;;;5.47;2.67;;;;;;;5.99;100.00;95726.97;6303764;28;20206;-58
2024/02/23 00:13:48;;;;;;;5.10;3.00;;;;;;;6.04;100.00;95734.91;6303855;28;20192;-58
2024/02/23 00:16:51;;;;;;;5.53;3.40;;;;;;;5.94;100.00;95733.03;6306067;28;20849;-57
2024/02/23 00:19:53;;;;;;;3.20;2.80;;;;;;;6.02;100.00;95733.59;6306113;28;20298;-56
2024/02/23 00:22:55;;;;;;;3.13;2.60;;;;;;;6.03;100.00;95724.59;6307782;28;20198;-56
2024/02/23 00:25:57;;;;;;;4.33;3.70;;;;;;;6.04;100.00;95726.19;6314633;28;20200;-58
2024/02/23 00:28:59;;;;;;;8.13;5.00;;;;;;;5.99;100.00;95723.53;6317199;28;20318;-58
2024/02/23 00:32:02;;;;;;;7.73;3.37;;;;;;;6.16;100.00;95727.56;6317259;28;20239;-57
2024/02/23 00:35:05;;;;;;;4.73;3.47;;;;;;;6.03;100.00;95720.13;6302459;28;20272;-57
2024/02/23 00:38:07;;;;;;;5.70;3.33;;;;;;;5.97;100.00;95723.00;6301223;28;20209;-58
2024/02/23 00:41:09;;;;;;;9.13;3.00;;;;;;;6.24;100.00;95728.09;6307679;28;20728;-55
2024/02/23 00:44:12;;;;;;;2.53;2.27;;;;;;;6.22;100.00;95722.28;6303161;28;20676;-54
2024/02/23 00:47:14;;;;;;;3.40;2.10;;;;;;;6.01;100.00;95721.41;6306491;28;20189;-56
2024/02/23 00:50:17;;;;;;;4.80;2.07;;;;;;;6.42;100.00;95724.94;6306222;28;20198;-56
2024/02/23 00:53:20;;;;;;;3.70;2.57;;;;;;;6.10;100.00;95731.22;6303067;28;20911;-57
2024/02/23 00:56:23;;;;;;;6.40;2.53;;;;;;;5.99;100.00;95728.81;6309100;28;20213;-57
2024/02/23 00:59:34;;;;;;;2.87;2.00;;;;;;;6.27;100.00;95738.94;6298029;28;20239;-57
2024/02/23 01:02:37;;;;;;;7.30;3.63;;;;;;;6.20;100.00;95748.94;6303113;28;20811;-56
2024/02/23 01:05:39;;;;;;;5.17;3.00;;;;;;;6.28;100.00;95732.59;6300249;28;20253;-55
2024/02/23 01:08:42;;;;;;;4.23;2.90;;;;;;;6.17;100.00;95738.91;6314203;28;20274;-57
2024/02/23 01:11:44;;;;;;;2.50;2.27;;;;;;;6.11;100.00;95718.81;6297067;28;20566;-55
2024/02/23 01:14:48;;;;;;;3.90;2.80;;;;;;;6.13;100.00;95721.97;6303212;28;20218;-53
2024/02/23 01:17:50;;;;;;;5.13;3.20;;;;;;;6.39;100.00;95722.81;6307791;28;20556;-58
2024/02/23 01:20:52;;;;;;;12.23;8.27;;;;;;;6.17;100.00;95728.34;6309457;28;20204;-57
2024/02/23 01:23:55;;;;;;;11.57;7.23;;;;;;;6.11;100.00;95724.91;6305988;28;20673;-54
2024/02/23 01:26:58;;;;;;;8.83;4.77;;;;;;;6.25;100.00;95737.59;6305341;28;20194;-54
2024/02/23 01:30:00;;;;;;;6.17;4.63;;;;;;;6.13;100.00;95736.00;6311990;28;20683;-57
2024/02/23 01:33:03;;;;;;;4.60;3.43;;;;;;;6.08;100.00;95738.63;6298222;28;20192;-56
2024/02/23 01:36:06;;;;;;;5.80;3.30;;;;;;;6.05;100.00;95728.56;6309871;28;20674;-57
2024/02/23 01:39:09;;;;;;;2.90;2.60;;;;;;;6.18;100.00;95733.34;6309545;28;20205;-57
2024/02/23 01:42:14;;;;;;;3.30;2.60;;;;;;;6.01;100.00;95727.53;6307467;28;20742;-55
2024/02/23 01:45:16;;;;;;;6.30;2.40;;;;;;;6.17;100.00;95723.06;6306201;28;21008;-57
2024/02/23 01:48:19;;;;;;;4.43;2.10;;;;;;;6.05;100.00;95722.47;6304970;28;20226;-57
2024/02/23 01:51:21;;;;;;;2.30;1.90;;;;;;;6.29;100.00;95720.94;6307114;28;20575;-57
2024/02/23 01:54:25;;;;;;;2.90;2.03;;;;;;;6.07;100.00;95715.91;6307093;28;20202;-57
2024/02/23 01:57:28;;;;;;;1.93;1.73;;;;;;;6.06;100.00;95713.50;6314653;28;20190;-57
2024/02/23 02:00:50;;;;;;;2.00;1.63;;;;;;;6.32;100.00;95709.84;6313350;28;20567;-54
2024/02/23 02:03:52;;;;;;;3.80;1.70;;;;;;;6.25;100.00;95709.31;6301351;28;20865;-57
2024/02/23 02:06:56;;;;;;;2.87;1.60;;;;;;;6.23;100.00;95716.72;6312838;28;20210;-58
2024/02/23 02:09:58;;;;;;;1.70;1.53;;;;;;;6.04;100.00;95720.91;6308865;28;20205;-58
2024/02/23 02:13:05;;;;;;;2.33;1.60;;;;;;;5.95;100.00;95726.69;6303267;28;20961;-57
2024/02/23 02:16:08;;;;;;;1.60;1.40;;;;;;;6.28;100.00;95727.31;6300829;28;20371;-57
2024/02/23 02:19:11;;;;;;;2.90;1.33;;;;;;;6.16;100.00;95734.69;6306763;28;20201;-58
2024/02/23 02:22:13;;;;;;;1.50;1.40;;;;;;;6.03;100.00;95728.03;6308918;28;20197;-55
2024/02/23 02:25:15;;;;;;;1.73;1.20;;;;;;;6.00;100.00;95738.34;6306444;28;20186;-55
2024/02/23 02:28:17;;;;;;;4.93;1.73;;;;;;;5.82;100.00;95721.88;6315257;28;20578;-57
2024/02/23 02:31:20;;;;;;;5.70;1.50;;;;;;;6.17;100.00;95754.78;6303484;28;20199;-56
2024/02/23 02:34:22;;;;;;;3.07;1.57;;;;;;;6.22;100.00;95746.84;6314701;28;20199;-57
2024/02/23 02:37:24;;;;;;;2.50;2.07;;;;;;;6.36;100.00;95757.72;6306140;28;20210;-57
2024/02/23 02:40:26;;;;;;;2.93;2.00;;;;;;;6.21;100.00;95758.50;6301279;28;20677;-55
2024/02/23 02:43:28;;;;;;;2.70;1.40;;;;;;;6.10;100.00;95757.66;6304204;28;20768;-56
2024/02/23 02:46:30;;;;;;;2.50;1.20;;;;;;;5.93;100.00;95749.16;6305124;28;20331;-56
2024/02/23 02:49:33;;;;;;;2.63;1.60;;;;;;;6.34;100.00;95768.56;6305592;28;20755;-59
2024/02/23 02:52:35;;;;;;;2.67;1.40;;;;;;;6.29;100.00;95773.84;6305668;28;20777;-55
2024/02/23 02:55:42;;;;;;;1.70;1.53;;;;;;;6.16;100.00;95774.34;6301317;28;20944;-57
2024/02/23 02:58:44;;;;;;;3.67;1.70;;;;;;;6.15;100.00;95783.31;6311848;28;20680;-57
2024/02/23 03:01:47;;;;;;;2.53;1.70;;;;;;;6.11;100.00;95775.13;6301202;28;20203;-55
2024/02/23 03:04:50;;;;;;;3.07;1.60;;;;;;;6.43;100.00;95782.84;6301933;28;20285;-58
2024/02/23 03:07:53;;;;;;;2.67;1.20;;;;;;;6.36;100.00;95750.59;6310751;28;20331;-57
2024/02/23 03:10:56;;;;;;;6.20;2.87;;;;;;;6.37;100.00;95775.97;6308620;28;20586;-59
2024/02/23 03:13:59;;;;;;;2.83;2.20;;;;;;;6.54;100.00;95791.59;6304431;28;20275;-57
2024/02/23 03:17:01;;;;;;;1.47;1.37;;;;;;;6.42;100.00;95773.34;6302803;28;20320;-58
2024/02/23 03:20:10;;;;;;;3.70;2.67;;;;;;;6.37;100.00;95794.50;6306167;28;20742;-58
2024/02/23 03:23:13;;;;;;;4.20;2.90;;;;;;;6.30;100.00;95811.63;6293209;28;20196;-57
2024/02/23 03:26:16;;;;;;;2.20;1.90;;;;;;;6.40;100.00;95815.13;6298661;28;20190;-58
2024/02/23 03:29:20;;;;;;;3.30;1.50;;;;;;;6.34;100.00;95829.38;6309844;28;20552;-57
2024/02/23 03:32:22;;;;;;;2.60;1.57;;;;;;;6.55;100.00;95847.94;6318326;28;20296;-57
2024/02/23 03:35:24;;;;;;;3.40;2.00;;;;;;;6.23;100.00;95853.41;6316156;28;20687;-58
2024/02/23 03:38:26;;;;;;;4.70;1.70;;;;;;;6.32;100.00;95884.38;6309338;28;20223;-57
2024/02/23 03:41:33;;;;;;;3.43;2.00;;;;;;;6.32;100.00;95889.69;6310096;28;20238;-57
2024/02/23 03:44:35;;;;;;;3.50;1.50;;;;;;;6.38;100.00;95891.28;6307808;28;20726;-56
2024/02/23 03:47:38;;;;;;;1.80;1.70;;;;;;;6.51;100.00;95907.75;6307694;28;20204;-55
2024/02/23 03:50:41;;;;;;;2.00;1.60;;;;;;;6.40;100.00;95893.66;6313560;28;20237;-57
2024/02/23 03:53:43;;;;;;;2.80;1.77;;;;;;;6.50;100.00;95920.13;6316880;28;20201;-56
2024/02/23 03:56:45;;;;;;;2.83;1.73;;;;;;;6.55;100.00;95932.59;6318639;28;20221;-54
2024/02/23 03:59:54;;;;;;;1.70;1.33;;;;;;;6.64;100.00;95983.97;6304773;28;20186;-55
2024/02/23 04:02:56;;;;;;;4.27;3.87;;;;;;;7.49;100.00;95992.44;6313388;28;20649;-55
2024/02/23 04:05:59;;;;;;;4.97;3.93;;;;;;;7.63;100.00;96003.28;6314775;28;20216;-57
2024/02/23 04:09:04;;;;;;;4.63;4.00;;;;;;;7.62;100.00;96007.00;6312426;28;20733;-58
2024/02/23 04:12:07;;;;;;;5.40;4.20;;;;;;;7.46;100.00;96004.31;6309722;28;20200;-56
2024/02/23 04:15:10;;;;;;;5.23;4.13;;;;;;;7.46;100.00;96040.63;6307285;28;20202;-57
2024/02/23 04:18:12;;;;;;;4.10;3.70;;;;;;;7.19;100.00;96020.44;6304046;28;20209;-54
2024/02/23 04:21:15;;;;;;;5.27;4.77;;;;;;;7.14;100.00;96025.72;6302468;28;20202;-56
2024/02/23 04:24:17;;;;;;;4.57;4.00;;;;;;;7.18;100.00;96024.13;6295579;28;20735;-57
2024/02/23 04:27:19;;;;;;;4.67;3.70;;;;;;;7.23;100.00;96047.19;6308525;28;20196;-55
2024/02/23 04:30:21;;;;;;;5.63;3.93;;;;;;;7.13;100.00;96036.56;6310455;28;20386;-57
2024/02/23 04:33:23;;;;;;;4.07;3.70;;;;;;;7.09;100.00;96048.72;6306619;28;20881;-56
2024/02/23 04:36:26;;;;;;;3.90;3.03;;;;;;;7.09;100.00;96062.75;6307549;28;20247;-58
2024/02/23 04:39:28;;;;;;;3.23;2.73;;;;;;;7.20;100.00;96059.09;6311019;28;20217;-56
2024/02/23 04:42:30;;;;;;;2.50;2.00;;;;;;;7.29;100.00;96054.09;6306383;28;20796;-55
2024/02/23 04:45:32;;;;;;;2.17;1.90;;;;;;;7.26;100.00;96056.47;6308360;28;20311;-57
2024/02/23 04:48:36;;;;;;;1.97;1.33;;;;;;;7.23;100.00;96052.47;6311140;28;20194;-56
2024/02/23 04:51:38;;;;;;;1.50;1.10;;;;;;;6.98;100.00;96013.47;6308974;28;20200;-57
2024/02/23 04:54:40;;;;;;;0.80;0.80;;;;;;;7.09;100.00;96046.06;6308383;28;20202;-57
2024/02/23 04:57:42;;;;;;;0.70;0.70;;;;;;;7.10;100.00;96060.94;6305835;28;20242;-58
2024/02/23 05:00:44;;;;;;;0.40;0.40;;;;;;;6.96;100.00;96048.16;6316235;28;20200;-57
2024/02/23 05:03:46;;;;;;;0.83;0.67;;;;;;;6.95;100.00;96056.38;6310634;28;20652;-54
2024/02/23 05:06:49;;;;;;;0.70;0.50;;;;;;;6.96;100.00;96039.41;6312725;28;20544;-55
2024/02/23 05:09:51;;;;;;;0.83;0.60;;;;;;;6.85;100.00;96045.72;6310088;28;20562;-57
2024/02/23 05:12:53;;;;;;;0.57;0.57;;;;;;;6.97;100.00;96046.31;6304321;28;20303;-57
2024/02/23 05:15:57;;;;;;;0.83;0.50;;;;;;;6.94;100.00;96052.91;6305878;28;20193;-56
2024/02/23 05:18:59;;;;;;;0.63;0.43;;;;;;;7.01;100.00;96063.28;6304690;28;20214;-56
2024/02/23 05:22:01;;;;;;;0.30;0.30;;;;;;;7.03;100.00;96050.56;6309885;28;20226;-57
2024/02/23 05:25:04;;;;;;;0.60;0.40;;;;;;;7.02;100.00;96053.47;6313099;28;20197;-57
2024/02/23 05:28:07;;;;;;;0.87;0.30;;;;;;;7.04;100.00;96054.00;6313691;28;20659;-57
2024/02/23 05:31:12;;;;;;;0.63;0.30;;;;;;;6.95;100.00;96057.16;6305450;28;20670;-55
2024/02/23 05:34:14;;;;;;;0.63;0.50;;;;;;;6.85;100.00;96046.53;6300121;28;20194;-57
2024/02/23 05:37:17;;;;;;;0.57;0.27;;;;;;;6.85;100.00;96069.56;6308297;28;20213;-55
2024/02/23 05:40:19;;;;;;;0.50;0.50;;;;;;;6.83;100.00;96069.00;6309502;28;20192;-56
2024/02/23 05:43:21;;;;;;;0.20;0.20;;;;;;;6.92;100.00;96070.09;6305637;28;20693;-57
2024/02/23 05:46:23;;;;;;;0.40;0.40;;;;;;;6.94;100.00;96068.78;6300673;28;20198;-59
2024/02/23 05:49:26;;;;;;;0.53;0.20;;;;;;;6.85;100.00;96041.22;6307705;28;20188;-57
2024/02/23 05:52:28;;;;;;;0.30;0.30;;;;;;;6.88;100.00;96077.75;6315301;28;20735;-56
2024/02/23 05:55:30;;;;;;;1.00;0.50;;;;;;;6.92;100.00;96078.03;6306302;28;20747;-55
2024/02/23 05:58:32;;;;;;;0.20;0.20;;;;;;;6.83;100.00;96083.03;6297831;28;20209;-58
2024/02/23 06:01:35;;;;;;;0.60;0.30;;;;;;;6.87;100.00;96092.06;6296758;28;20200;-57
2024/02/23 06:04:37;;;;;;;0.47;0.30;;;;;;;7.02;100.00;96101.91;6311457;28;20813;-57
2024/02/23 06:07:39;;;;;;;0.80;0.30;;;;;;;7.12;100.00;96101.16;6305174;28;20246;-57
2024/02/23 06:10:43;;;;;;;0.20;0.20;;;;;;;7.22;100.00;96109.94;6303902;28;20196;-58
2024/02/23 06:13:45;;;;;;;0.30;0.20;;;;;;;7.30;95.94;96091.97;6304770;28;20576;-56
2024/02/23 06:16:48;;;;;;;0.77;0.20;;;;;;;7.41;95.87;96107.63;6300656;28;20873;-57
2024/02/23 06:19:53;;;;;;;0.50;0.30;;;;;;;7.24;100.00;96099.09;6303282;28;20721;-57
2024/02/23 06:22:55;;;;;;;0.20;0.20;;;;;;;7.06;100.00;96104.84;6313509;28;20668;-56
2024/02/23 06:25:57;;;;;;;1.27;0.20;;;;;;;7.01;100.00;96115.44;6293941;28;20708;-57
2024/02/23 06:29:00;;;;;;;0.10;0.10;;;;;;;6.94;100.00;96118.28;6315246;28;20364;-57
2024/02/23 06:32:02;;;;;;;0.10;0.10;;;;;;;7.00;100.00;96108.53;6303018;28;20190;-55
2024/02/23 06:35:06;;;;;;;0.50;0.20;;;;;;;6.89;100.00;96113.75;6308183;28;20196;-57
2024/02/23 06:38:09;;;;;;;0.10;0.10;;;;;;;6.80;100.00;96125.91;6307403;28;20245;-57
2024/02/23 06:41:12;;;;;;;0.10;0.10;;;;;;;6.77;100.00;96126.41;6305041;28;20233;-57
2024/02/23 06:44:14;;;;;;;0.27;0.23;;;;;;;6.65;100.00;96123.13;6304401;28;20203;-57
2024/02/23 06:47:16;;;;;;;0.33;0.20;;;;;;;6.63;100.00;96125.25;6308372;28;20566;-57
2024/02/23 06:50:18;;;;;;;0.83;0.30;;;;;;;6.60;100.00;96129.22;6312487;28;20192;-57
2024/02/23 06:53:21;;;;;;;0.57;0.20;;;;;;;6.66;100.00;96135.34;6295507;28;20303;-57
2024/02/23 06:56:23;;;;;;;0.57;0.20;;;;;;;6.92;100.00;96141.56;6303517;28;20195;-56
2024/02/23 06:59:25;;;;;;;2.17;0.20;;;;;;;6.94;100.00;96150.06;6298994;28;20214;-56
2024/02/23 07:02:31;;;;;;;0.23;0.20;;;;;;;7.04;100.00;96146.66;6307781;28;20603;-54
2024/02/23 07:05:35;;;;;;;0.20;0.20;;;;;;;7.32;96.03;96148.94;6307608;28;20193;-57
2024/02/23 07:08:37;;;;;;;0.53;0.20;;;;;;;7.46;97.76;96173.91;6304218;28;20193;-57
2024/02/23 07:11:43;;;;;;;0.20;0.20;;;;;;;7.38;91.13;96157.69;6304073;28;20228;-57
2024/02/23 07:14:45;;;;;;;0.40;0.20;;;;;;;7.60;92.69;96168.13;6299391;28;20203;-57
2024/02/23 07:17:47;;;;;;;0.50;0.20;;;;;;;7.60;88.45;96181.38;6300076;28;20825;-56
2024/02/23 07:20:50;;;;;;;0.30;0.20;;;;;;;7.62;90.89;96208.41;6302980;28;20205;-57
2024/02/23 07:23:52;;;;;;;0.10;0.10;;;;;;;7.58;89.82;96212.63;6314964;28;20193;-58
2024/02/23 07:26:54;;;;;;;0.20;0.20;;;;;;;7.59;93.86;96222.19;6305122;28;20202;-58
2024/02/23 07:29:57;;;;;;;0.20;0.17;;;;;;;7.50;98.06;96235.91;6305364;28;20542;-55
2024/02/23 07:32:59;;;;;;;0.30;0.20;;;;;;;7.32;100.00;96232.91;6303703;28;20183;-56
2024/02/23 07:36:01;;;;;;;0.10;0.10;;;;;;;7.29;100.00;96244.81;6302658;28;20700;-57
2024/02/23 07:39:03;;;;;;;0.10;0.10;;;;;;;7.28;100.00;96258.28;6303662;28;20605;-55
2024/02/23 07:42:06;;;;;;;0.83;0.10;;;;;;;7.19;100.00;96260.63;6303749;28;20218;-56
2024/02/23 07:45:09;;;;;;;0.27;0.20;;;;;;;6.97;100.00;96232.41;6306295;28;20226;-55
2024/02/23 07:48:11;;;;;;;0.50;0.20;;;;;;;7.03;100.00;96259.72;6307459;28;20574;-57
2024/02/23 07:51:13;;;;;;;1.50;0.40;;;;;;;6.96;100.00;96273.19;6313196;28;20606;-58
2024/02/23 07:54:16;;;;;;;0.20;0.20;;;;;;;6.90;100.00;96279.50;6306333;28;20568;-57
2024/02/23 07:57:19;;;;;;;0.33;0.27;;;;;;;6.94;100.00;96287.72;6297667;28;20763;-57
2024/02/23 08:00:21;;;;;;;2.30;0.30;;;;;;;6.88;100.00;96286.88;6308272;28;20272;-53
2024/02/23 08:03:26;;;;;;;1.10;0.50;;;;;;;6.89;100.00;96277.06;6303673;28;20216;-56
2024/02/23 08:06:29;;;;;;;0.50;0.20;;;;;;;6.90;100.00;96274.19;6295395;28;20210;-55
2024/02/23 08:09:31;;;;;;;0.23;0.23;;;;;;;6.92;100.00;96290.63;6303244;28;20194;-58
2024/02/23 08:12:33;;;;;;;0.30;0.20;;;;;;;6.94;100.00;96304.38;6301884;28;20202;-54
2024/02/23 08:15:41;;;;;;;0.20;0.20;;;;;;;6.95;100.00;96295.41;6308429;28;20202;-54
2024/02/23 08:18:43;;;;;;;2.30;0.37;;;;;;;7.02;100.00;96289.09;6316473;28;20582;-54
2024/02/23 08:21:46;;;;;;;0.40;0.30;;;;;;;7.12;100.00;96289.97;6317351;28;20186;-58
2024/02/23 08:24:48;;;;;;;0.30;0.20;;;;;;;7.22;100.00;96291.91;6319274;28;20673;-57
2024/02/23 08:27:50;;;;;;;0.27;0.27;;;;;;;7.28;100.00;96279.50;6317226;28;20888;-58
2024/02/23 08:30:53;;;;;;;0.30;0.30;;;;;;;7.33;100.00;96285.59;6314381;28;20204;-57
2024/02/23 08:33:55;;;;;;;0.80;0.30;;;;;;;7.39;100.00;96300.50;6311286;28;20273;-56
2024/02/23 08:36:57;;;;;;;0.20;0.20;;;;;;;7.54;100.00;96306.94;6309378;28;20230;-58
2024/02/23 08:39:59;;;;;;;0.20;0.20;;;;;;;7.46;100.00;96305.56;6296602;28;20213;-57
2024/02/23 08:43:01;;;;;;;0.30;0.20;;;;;;;7.54;100.00;96323.66;6308487;28;20248;-56
2024/02/23 08:46:04;;;;;;;0.10;0.10;;;;;;;7.63;100.00;96316.78;6310830;28;20194;-57
2024/02/23 08:49:11;;;;;;;0.20;0.20;;;;;;;7.63;100.00;96292.16;6310739;28;20706;-54
2024/02/23 08:52:13;;;;;;;1.30;0.30;;;;;;;7.78;100.00;96321.38;6303355;28;20202;-58
2024/02/23 08:55:15;;;;;;;0.20;0.20;;;;;;;7.81;100.00;96320.09;6306422;28;20195;-57
2024/02/23 08:58:20;;;;;;;0.57;0.43;;;;;;;7.68;100.00;96318.69;6302919;28;20285;-57
2024/02/23 09:01:22;;;;;;;1.30;0.33;;;;;;;7.75;100.00;96311.31;6302436;28;20190;-55
2024/02/23 09:04:24;;;;;;;0.50;0.40;;;;;;;7.80;100.00;96326.44;6306077;28;20202;-58
2024/02/23 09:07:26;;;;;;;0.40;0.30;;;;;;;7.87;100.00;96330.44;6306324;28;20644;-56
2024/02/23 09:10:29;;;;;;;0.67;0.33;;;;;;;7.90;96.41;96332.59;6306729;28;20226;-58
2024/02/23 09:13:31;;;;;;;0.73;0.27;;;;;;;7.83;98.78;96315.31;6311818;28;20206;-57
2024/02/23 09:16:33;;;;;;;0.30;0.27;;;;;;;8.00;100.00;96329.19;6313013;28;20480;-58
2024/02/23 09:19:36;;;;;;;0.20;0.20;;;;;;;7.99;100.00;96332.91;6313997;28;20218;-56
2024/02/23 09:22:39;;;;;;;0.40;0.30;;;;;;;8.04;100.00;96340.09;6309182;28;20199;-57
2024/02/23 09:25:41;;;;;;;0.20;0.20;;;;;;;8.02;100.00;96343.78;6301146;28;20273;-56
2024/02/23 09:28:45;;;;;;;0.20;0.20;;;;;;;8.06;100.00;96338.78;6313720;28;20216;-58
2024/02/23 09:31:47;;;;;;;0.30;0.30;;;;;;;7.92;100.00;96351.69;6308518;28;20655;-57
2024/02/23 09:34:50;;;;;;;1.10;0.20;;;;;;;7.92;99.61;96357.00;6298024;28;20669;-57
2024/02/23 09:37:52;;;;;;;0.30;0.30;;;;;;;7.99;100.00;96356.78;6306460;28;20194;-55
2024/02/23 09:40:54;;;;;;;0.20;0.20;;;;;;;8.03;100.00;96352.56;6306998;28;21101;-55
2024/02/23 09:43:59;;;;;;;0.10;0.10;;;;;;;8.09;100.00;96359.47;6310505;28;20655;-58
2024/02/23 09:47:07;;;;;;;0.20;0.20;;;;;;;8.13;100.00;96354.47;6307276;28;20479;-57
2024/02/23 09:50:11;;;;;;;0.20;0.20;;;;;;;8.12;100.00;96334.28;6312593;28;20293;-57
2024/02/23 09:53:14;;;;;;;0.20;0.20;;;;;;;8.25;100.00;96349.72;6304232;28;20227;-56
2024/02/23 09:56:17;;;;;;;0.10;0.10;;;;;;;8.28;100.00;96351.88;6299065;28;20197;-58
2024/02/23 09:59:20;;;;;;;0.50;0.23;;;;;;;8.29;100.00;96342.84;6295168;28;20286;-58
2024/02/23 10:02:23;;;;;;;0.40;0.30;;;;;;;8.52;100.00;96350.41;6293166;28;20197;-54
2024/02/23 10:05:30;;;;;;;0.67;0.30;;;;;;;8.61;100.00;96320.66;6303974;28;20197;-57
2024/02/23 10:08:38;;;;;;;0.30;0.30;;;;;;;8.68;100.00;96327.34;6306830;28;20218;-54
2024/02/23 10:11:40;;;;;;;0.47;0.20;;;;;;;8.60;100.00;96321.75;6309294;28;20190;-56
2024/02/23 10:14:42;;;;;;;0.20;0.20;;;;;;;8.41;100.00;96321.41;6311224;28;20712;-55
2024/02/23 10:17:45;;;;;;;0.10;0.10;;;;;;;8.36;100.00;96318.72;6312537;28;20194;-58
2024/02/23 10:20:50;;;;;;;0.30;0.17;;;;;;;8.40;100.00;96315.31;6299436;28;20890;-55
2024/02/23 10:23:52;;;;;;;0.20;0.20;;;;;;;8.41;100.00;96308.16;6316035;28;20195;-56
2024/02/23 10:26:55;;;;;;;0.47;0.30;;;;;;;8.41;100.00;96300.97;6309134;28;20190;-57
2024/02/23 10:29:57;;;;;;;0.20;0.20;;;;;;;8.53;100.00;96306.06;6309121;28;20670;-57
2024/02/23 10:32:59;;;;;;;0.40;0.20;;;;;;;8.57;100.00;96314.28;6307770;28;20194;-56
2024/02/23 10:36:04;;;;;;;0.63;0.30;;;;;;;8.60;97.54;96292.53;6305393;28;20197;-55
2024/02/23 10:39:09;;;;;;;1.03;0.20;;;;;;;8.65;98.17;96282.72;6305949;28;20259;-56
2024/02/23 10:42:13;;;;;;;0.20;0.20;;;;;;;8.72;97.25;96271.88;6307113;28;20231;-55
2024/02/23 10:45:17;;;;;;;0.63;0.30;;;;;;;8.79;94.59;96262.56;6311781;28;20199;-56
2024/02/23 10:48:20;;;;;;;0.50;0.43;;;;;;;8.81;96.00;96275.56;6308376;28;20185;-57
2024/02/23 10:51:23;;;;;;;2.13;0.40;;;;;;;8.86;96.78;96278.22;6292380;28;20273;-58
2024/02/23 10:54:26;;;;;;;0.40;0.40;;;;;;;8.87;96.86;96274.53;6304338;28;20270;-52
2024/02/23 10:57:29;;;;;;;0.40;0.40;;;;;;;8.87;96.03;96284.34;6309896;28;20194;-58
2024/02/23 11:00:31;;;;;;;0.40;0.40;;;;;;;8.81;93.21;96275.56;6309033;28;20217;-57
2024/02/23 11:03:37;;;;;;;0.80;0.50;;;;;;;8.56;93.47;96254.31;6304455;28;20216;-55
2024/02/23 11:06:40;;;;;;;0.33;0.27;;;;;;;8.70;93.09;96279.28;6302681;28;20194;-57
2024/02/23 11:09:42;;;;;;;0.40;0.40;;;;;;;8.52;93.36;96254.03;6301031;28;20220;-57
2024/02/23 11:12:44;;;;;;;0.63;0.50;;;;;;;8.61;93.43;96265.72;6302129;28;20238;-57
2024/02/23 11:15:47;;;;;;;0.63;0.43;;;;;;;8.66;93.63;96262.28;6295533;28;20198;-58
2024/02/23 11:18:49;;;;;;;0.20;0.20;;;;;;;8.72;93.05;96262.03;6293971;28;20232;-57
2024/02/23 11:21:52;;;;;;;0.57;0.57;;;;;;;8.81;92.40;96275.56;6296249;28;20628;-58
2024/02/23 11:25:08;;;;;;;0.87;0.60;;;;;;;8.54;93.09;96246.63;6310999;28;20202;-57
2024/02/23 11:28:22;;;;;;;3.07;0.80;;;;;;;8.63;93.45;96276.09;6307864;28;20199;-55
2024/02/23 11:31:28;;;;;;;2.57;0.60;;;;;;;8.56;89.07;96271.03;6304524;28;20205;-55
2024/02/23 11:34:30;;;;;;;0.80;0.70;;;;;;;8.46;91.74;96247.13;6306231;28;20660;-56
2024/02/23 11:37:43;;;;;;;2.47;0.90;;;;;;;8.63;92.05;96266.28;6303771;28;20198;-57
2024/02/23 11:40:48;;;;;;;1.00;0.80;;;;;;;8.58;93.57;96262.81;6308584;28;20230;-57
2024/02/23 11:43:51;;;;;;;1.30;0.77;;;;;;;8.60;94.32;96260.69;6305236;28;20205;-56
2024/02/23 11:46:53;;;;;;;1.00;0.63;;;;;;;8.56;93.82;96244.47;6296665;28;20200;-57
2024/02/23 11:49:56;;;;;;;0.73;0.73;;;;;;;8.50;93.61;96234.94;6313949;28;20193;-57
2024/02/23 11:52:59;;;;;;;2.77;0.60;;;;;;;8.66;94.11;96235.72;6296139;28;20202;-55
2024/02/23 11:56:02;;;;;;;1.53;0.60;;;;;;;8.75;93.97;96242.13;6315084;28;20206;-55
2024/02/23 11:59:05;;;;;;;1.23;0.77;;;;;;;8.85;92.75;96241.31;6305256;28;20213;-58
2024/02/23 12:02:07;;;;;;;0.60;0.53;;;;;;;8.88;91.67;96232.84;6309645;28;20199;-58
2024/02/23 12:05:09;;;;;;;1.03;0.70;;;;;;;8.78;92.65;96239.72;6306789;28;20199;-58
2024/02/23 12:08:12;;;;;;;1.43;0.63;;;;;;;8.81;94.04;96241.03;6309176;28;20202;-55
2024/02/23 12:11:14;;;;;;;0.93;0.50;;;;;;;8.69;93.75;96225.38;6312729;28;20186;-55
2024/02/23 12:14:17;;;;;;;0.70;0.60;;;;;;;8.54;92.91;96214.75;6312320;28;20275;-58
2024/02/23 12:17:19;;;;;;;2.63;0.83;;;;;;;8.58;92.38;96204.44;6308517;28;20673;-57
2024/02/23 12:20:22;;;;;;;1.83;0.60;;;;;;;8.46;92.98;96191.41;6300373;28;20232;-57
2024/02/23 12:23:24;;;;;;;0.70;0.50;;;;;;;8.34;93.65;96204.09;6317003;28;20694;-56
2024/02/23 12:26:26;;;;;;;0.80;0.63;;;;;;;8.41;95.31;96194.03;6314489;28;20190;-57
2024/02/23 12:29:29;;;;;;;1.43;0.80;;;;;;;8.47;95.47;96199.13;6306912;28;20186;-57
2024/02/23 12:32:31;;;;;;;1.03;0.83;;;;;;;8.50;95.73;96193.25;6307927;28;20190;-56
2024/02/23 12:35:35;;;;;;;1.10;1.00;;;;;;;8.61;97.11;96188.75;6306765;28;20941;-57
2024/02/23 12:38:38;;;;;;;2.07;1.10;;;;;;;8.71;96.03;96185.28;6309426;28;20220;-58
2024/02/23 12:41:40;;;;;;;0.80;0.80;;;;;;;8.71;96.38;96179.97;6311527;28;20650;-57
2024/02/23 12:44:43;;;;;;;1.57;0.97;;;;;;;8.53;95.24;96178.69;6316265;28;20259;-55
2024/02/23 12:47:45;;;;;;;1.50;1.10;;;;;;;8.36;96.58;96181.56;6315345;28;20264;-58
2024/02/23 12:50:49;;;;;;;3.13;1.13;;;;;;;8.16;99.33;96162.94;6315332;28;20718;-57
2024/02/23 12:53:51;;;;;;;0.80;0.80;;;;;;;8.24;98.24;96171.19;6313188;28;20186;-58
2024/02/23 12:56:53;;;;;;;1.43;1.20;;;;;;;8.20;100.00;96167.47;6300369;28;20655;-57
2024/02/23 12:59:55;;;;;;;1.90;0.97;;;;;;;8.17;100.00;96167.97;6303645;28;20214;-57
2024/02/23 13:02:58;;;;;;;1.77;1.10;;;;;;;8.13;100.00;96172.25;6306675;28;20193;-57
2024/02/23 13:06:01;;;;;;;2.13;1.20;;;;;;;8.09;100.00;96163.22;6305202;28;20194;-57
2024/02/23 13:09:03;;;;;;;1.13;1.03;;;;;;;8.08;100.00;96164.28;6312050;28;20206;-58
2024/02/23 13:12:06;;;;;;;1.63;1.43;;;;;;;8.00;100.00;96152.31;6294117;28;20197;-57
2024/02/23 13:15:09;;;;;;;1.53;1.40;;;;;;;8.06;100.00;96160.28;6313916;28;20259;-56
2024/02/23 13:18:11;;;;;;;1.30;1.20;;;;;;;8.04;100.00;96154.47;6306778;28;20195;-57
2024/02/23 13:21:14;;;;;;;1.93;1.30;;;;;;;8.04;100.00;96149.94;6306997;28;20209;-57
2024/02/23 13:24:16;;;;;;;1.43;1.33;;;;;;;8.12;100.00;96154.72;6308254;28;20194;-57
2024/02/23 13:27:18;;;;;;;1.63;1.43;;;;;;;7.92;100.00;96158.13;6301955;28;20300;-55
2024/02/23 13:30:20;;;;;;;1.77;1.67;;;;;;;7.97;100.00;96146.75;6304454;28;20194;-55
2024/02/23 13:33:23;;;;;;;2.23;1.80;;;;;;;8.12;100.00;96145.97;6308528;28;20198;-57
2024/02/23 13:36:26;;;;;;;1.90;1.50;;;;;;;8.05;100.00;96134.81;6309435;28;20193;-55
2024/02/23 13:39:28;;;;;;;2.13;1.87;;;;;;;8.05;100.00;96116.28;6311223;28;20206;-57
2024/02/23 13:42:31;;;;;;;2.33;2.13;;;;;;;8.03;100.00;96124.50;6309320;28;20321;-57
2024/02/23 13:45:33;;;;;;;3.83;2.00;;;;;;;7.99;100.00;96112.81;6315026;28;20363;-57
2024/02/23 13:48:36;;;;;;;2.23;2.00;;;;;;;7.88;100.00;96116.50;6295995;28;20585;-57
2024/02/23 13:51:39;;;;;;;2.20;1.80;;;;;;;7.72;100.00;96089.97;6304175;28;20660;-57
2024/02/23 13:54:41;;;;;;;3.07;2.40;;;;;;;7.96;100.00;96105.38;6307623;28;20208;-57
2024/02/23 13:57:43;;;;;;;2.17;1.93;;;;;;;8.01;100.00;96106.19;6308750;28;20223;-53
2024/02/23 14:00:45;;;;;;;2.27;2.07;;;;;;;8.06;100.00;96107.25;6303235;28;20294;-58
2024/02/23 14:03:47;;;;;;;2.17;1.83;;;;;;;8.12;100.00;96103.53;6304073;28;20336;-56
2024/02/23 14:06:50;;;;;;;2.00;1.80;;;;;;;8.15;100.00;96101.16;6306098;28;20200;-57
2024/02/23 14:09:52;;;;;;;2.30;2.10;;;;;;;8.21;100.00;96099.28;6302712;28;20197;-54
2024/02/23 14:12:55;;;;;;;2.20;1.93;;;;;;;8.03;100.00;96084.72;6304858;28;20217;-56
2024/02/23 14:15:57;;;;;;;2.47;2.00;;;;;;;8.06;100.00;96102.72;6295209;28;20198;-57
2024/02/23 14:18:59;;;;;;;2.73;2.13;;;;;;;8.08;100.00;96094.50;6296023;28;20248;-57
2024/02/23 14:22:02;;;;;;;4.53;2.27;;;;;;;8.12;100.00;96090.28;6297194;28;20490;-54